Time;durP1;ratioP1;P1;durP2;ratioP2;P2;SDS_P1;SDS_P2;PMS_P1;PMS_P2;Temp;Humidity;BMP_temperature;BMP_pressure;BME280_temperature;BME280_humidity;BME280_pressure;Samples;Min_cycle;Max_cycle;Signal;HPM_P1;HPM_P2
2023/04/06 00:02:13;;;;;;;;;;;;;;;0.22;59.64;100589.00;5568104;32;34066;-64
2023/04/06 00:05:16;;;;;;;;;;;;;;;0.16;60.65;100579.78;5568634;32;35333;-65
2023/04/06 00:08:21;;;;;;;;;;;;;;;0.19;61.67;100577.00;5568765;32;34126;-66
2023/04/06 00:11:23;;;;;;;;;;;;;;;0.15;60.62;100582.47;5568566;32;34062;-65
2023/04/06 00:14:26;;;;;;;;;;;;;;;0.21;62.68;100576.88;5568551;32;34770;-66
2023/04/06 00:17:28;;;;;;;;;;;;;;;0.16;62.96;100569.34;5567964;32;34782;-67
2023/04/06 00:20:31;;;;;;;;;;;;;;;0.08;68.21;100574.22;5568453;32;32999;-65
2023/04/06 00:23:34;;;;;;;;;;;;;;;0.08;74.63;100573.38;5568386;32;34326;-66
2023/04/06 00:26:36;;;;;;;;;;;;;;;0.10;77.32;100571.53;5567985;32;34549;-66
2023/04/06 00:29:39;;;;;;;;;;;;;;;0.03;79.77;100571.06;5568673;32;34364;-65
2023/04/06 00:32:42;;;;;;;;;;;;;;;0.03;81.16;100572.84;5566636;32;34693;-66
2023/04/06 00:35:45;;;;;;;;;;;;;;;0.24;78.83;100561.88;5568617;32;34271;-65
2023/04/06 00:38:47;;;;;;;;;;;;;;;0.15;78.02;100557.22;5568223;32;34798;-66
2023/04/06 00:41:51;;;;;;;;;;;;;;;-0.07;79.43;100557.75;5568140;32;34888;-66
2023/04/06 00:44:54;;;;;;;;;;;;;;;-0.27;80.58;100557.31;5568269;32;34197;-65
2023/04/06 00:47:57;;;;;;;;;;;;;;;-0.20;84.57;100561.25;5568424;32;34805;-65
2023/04/06 00:51:00;;;;;;;;;;;;;;;-0.07;81.79;100554.31;5567892;32;34293;-65
2023/04/06 00:54:03;;;;;;;;;;;;;;;-0.10;80.33;100555.31;5568151;32;34000;-65
2023/04/06 00:57:06;;;;;;;;;;;;;;;-0.02;79.68;100553.09;5568361;32;34665;-65
2023/04/06 01:00:09;;;;;;;;;;;;;;;-0.34;82.59;100561.25;5568276;32;34219;-66
2023/04/06 01:03:13;;;;;;;;;;;;;;;-0.18;84.01;100557.59;5567946;32;33866;-66
2023/04/06 01:06:16;;;;;;;;;;;;;;;-0.08;82.11;100550.03;5568471;32;34506;-65
2023/04/06 01:09:21;;;;;;;;;;;;;;;-0.04;82.31;100559.31;5567990;32;34912;-66
2023/04/06 01:12:26;;;;;;;;;;;;;;;-0.28;84.52;100566.06;5567895;32;34939;-65
2023/04/06 01:15:29;;;;;;;;;;;;;;;-0.43;87.23;100554.81;5568249;32;34392;-65
2023/04/06 01:18:32;;;;;;;;;;;;;;;-0.39;87.61;100558.94;5568072;32;34037;-63
2023/04/06 01:21:40;;;;;;;;;;;;;;;-0.36;86.17;100566.53;5567858;32;34572;-64
2023/04/06 01:24:44;;;;;;;;;;;;;;;-0.64;86.93;100564.78;5568245;32;34301;-64
2023/04/06 01:27:47;;;;;;;;;;;;;;;-0.61;85.73;100555.94;5568011;32;34187;-65
2023/04/06 01:30:50;;;;;;;;;;;;;;;-0.66;85.57;100557.97;5568057;32;34221;-64
2023/04/06 01:33:54;;;;;;;;;;;;;;;-0.84;86.18;100565.13;5566920;32;33976;-64
2023/04/06 01:36:57;;;;;;;;;;;;;;;-0.71;87.30;100554.81;5567707;32;34212;-65
2023/04/06 01:40:00;;;;;;;;;;;;;;;-0.45;85.53;100552.31;5567839;32;34501;-65
2023/04/06 01:43:04;;;;;;;;;;;;;;;-0.46;84.82;100560.22;5567323;32;34746;-65
2023/04/06 01:46:07;;;;;;;;;;;;;;;-0.59;82.81;100556.69;5567941;32;34240;-65
2023/04/06 01:49:10;;;;;;;;;;;;;;;-0.72;84.64;100558.34;5567956;32;34182;-64
2023/04/06 01:52:13;;;;;;;;;;;;;;;-0.66;84.39;100563.19;5567631;32;34093;-65
2023/04/06 01:55:17;;;;;;;;;;;;;;;-0.77;84.07;100557.78;5567698;32;35349;-65
2023/04/06 01:58:20;;;;;;;;;;;;;;;-0.72;85.12;100547.91;5567870;32;35073;-65
2023/04/06 02:01:23;;;;;;;;;;;;;;;-0.67;81.95;100538.06;5567737;32;34498;-65
2023/04/06 02:04:26;;;;;;;;;;;;;;;-0.56;80.46;100548.69;5567988;32;34205;-65
2023/04/06 02:07:29;;;;;;;;;;;;;;;-0.52;79.36;100544.94;5567997;31;32347;-65
2023/04/06 02:10:32;;;;;;;;;;;;;;;-0.42;77.32;100540.84;5568021;32;34232;-65
2023/04/06 02:13:36;;;;;;;;;;;;;;;-0.50;77.58;100530.91;5567950;32;34086;-64
2023/04/06 02:16:38;;;;;;;;;;;;;;;-0.35;75.01;100530.91;5567610;32;34154;-64
2023/04/06 02:19:41;;;;;;;;;;;;;;;-0.52;78.39;100532.75;5567566;32;33938;-64
2023/04/06 02:22:43;;;;;;;;;;;;;;;-0.69;78.22;100529.53;5567540;32;33870;-64
2023/04/06 02:25:46;;;;;;;;;;;;;;;-0.77;79.56;100523.91;5567490;32;34869;-64
2023/04/06 02:28:49;;;;;;;;;;;;;;;-0.72;80.91;100522.72;5567521;32;34100;-65
2023/04/06 02:31:52;;;;;;;;;;;;;;;-0.50;80.13;100517.03;5567329;32;34154;-65
2023/04/06 02:34:56;;;;;;;;;;;;;;;-0.55;79.19;100514.72;5567445;32;34295;-65
2023/04/06 02:37:59;;;;;;;;;;;;;;;-0.74;80.11;100516.78;5567259;32;34063;-65
2023/04/06 02:41:02;;;;;;;;;;;;;;;-0.79;80.85;100516.22;5566785;32;34355;-65
2023/04/06 02:44:08;;;;;;;;;;;;;;;-0.85;81.46;100523.53;5567176;32;34795;-65
2023/04/06 02:47:11;;;;;;;;;;;;;;;-0.89;80.60;100517.69;5567603;32;34206;-65
2023/04/06 02:50:15;;;;;;;;;;;;;;;-0.96;81.18;100518.97;5566570;32;35003;-64
2023/04/06 02:53:18;;;;;;;;;;;;;;;-0.97;81.68;100512.13;5566475;32;34165;-65
2023/04/06 02:56:21;;;;;;;;;;;;;;;-0.91;81.96;100517.78;5566769;32;34288;-65
2023/04/06 02:59:25;;;;;;;;;;;;;;;-0.94;81.21;100517.97;5566996;32;34357;-65
2023/04/06 03:02:29;;;;;;;;;;;;;;;-0.68;79.05;100508.59;5567064;32;33290;-65
2023/04/06 03:05:36;;;;;;;;;;;;;;;-0.59;78.30;100509.78;5566907;32;34215;-65
2023/04/06 03:08:39;;;;;;;;;;;;;;;-0.74;79.20;100503.75;5566274;32;34296;-65
2023/04/06 03:11:41;;;;;;;;;;;;;;;-0.89;80.54;100512.47;5566095;32;34040;-65
2023/04/06 03:14:44;;;;;;;;;;;;;;;-1.03;81.21;100509.88;5566750;32;34049;-65
2023/04/06 03:17:47;;;;;;;;;;;;;;;-1.01;83.08;100514.03;5566596;32;34386;-65
2023/04/06 03:20:53;;;;;;;;;;;;;;;-0.73;80.86;100513.25;5567042;32;34180;-65
2023/04/06 03:23:57;;;;;;;;;;;;;;;-0.92;81.00;100517.88;5566390;32;35017;-65
2023/04/06 03:27:01;;;;;;;;;;;;;;;-0.91;80.56;100517.78;5566913;32;33924;-65
2023/04/06 03:30:05;;;;;;;;;;;;;;;-1.06;80.40;100512.63;5565566;32;34834;-65
2023/04/06 03:33:10;;;;;;;;;;;;;;;-1.18;81.16;100514.22;5553293;32;34161;-65
2023/04/06 03:36:13;;;;;;;;;;;;;;;-1.03;81.53;100515.91;5566107;32;34762;-65
2023/04/06 03:39:16;;;;;;;;;;;;;;;-1.11;81.28;100522.47;5566422;32;34234;-65
2023/04/06 03:42:19;;;;;;;;;;;;;;;-1.11;81.38;100518.13;5565345;32;34110;-66
2023/04/06 03:45:22;;;;;;;;;;;;;;;-1.14;81.55;100512.25;5566001;32;34759;-66
2023/04/06 03:48:25;;;;;;;;;;;;;;;-1.13;82.12;100511.34;5566432;32;34978;-66
2023/04/06 03:51:28;;;;;;;;;;;;;;;-1.17;82.69;100521.09;5566649;32;34057;-65
2023/04/06 03:54:30;;;;;;;;;;;;;;;-1.23;83.01;100512.81;5566159;32;34197;-65
2023/04/06 03:57:33;;;;;;;;;;;;;;;-1.30;83.98;100509.72;5565158;32;34248;-65
2023/04/06 04:00:35;;;;;;;;;;;;;;;-1.36;84.25;100505.72;5565794;32;34199;-65
2023/04/06 04:03:38;;;;;;;;;;;;;;;-1.38;85.96;100504.97;5565594;31;34277;-64
2023/04/06 04:06:41;;;;;;;;;;;;;;;-1.44;87.52;100507.06;5566928;32;34507;-65
2023/04/06 04:09:44;;;;;;;;;;;;;;;-1.34;88.43;100503.84;5568401;32;34133;-65
2023/04/06 04:12:47;;;;;;;;;;;;;;;-1.30;88.66;100501.91;5568536;32;34828;-65
2023/04/06 04:15:49;;;;;;;;;;;;;;;-1.37;88.17;100506.66;5568589;32;34782;-65
2023/04/06 04:18:52;;;;;;;;;;;;;;;-1.40;87.77;100500.75;5568114;32;34189;-65
2023/04/06 04:21:55;;;;;;;;;;;;;;;-1.36;87.10;100504.87;5568294;32;34221;-65
2023/04/06 04:25:00;;;;;;;;;;;;;;;-1.27;87.61;100496.53;5568290;32;34776;-65
2023/04/06 04:28:04;;;;;;;;;;;;;;;-1.31;86.11;100493.25;5568561;32;33867;-65
2023/04/06 04:31:07;;;;;;;;;;;;;;;-1.18;84.36;100493.38;5567272;32;34469;-66
2023/04/06 04:34:10;;;;;;;;;;;;;;;-1.14;84.02;100494.03;5568683;32;34207;-65
2023/04/06 04:37:13;;;;;;;;;;;;;;;-1.12;85.25;100494.81;5568441;32;33699;-65
2023/04/06 04:40:18;;;;;;;;;;;;;;;-0.82;81.91;100486.91;5568111;32;35010;-66
2023/04/06 04:43:21;;;;;;;;;;;;;;;-0.77;79.66;100485.69;5568554;32;34080;-65
2023/04/06 04:46:25;;;;;;;;;;;;;;;-0.77;80.26;100477.03;5567976;32;34710;-65
2023/04/06 04:49:28;;;;;;;;;;;;;;;-0.71;80.19;100484.47;5568548;32;34811;-66
2023/04/06 04:52:31;;;;;;;;;;;;;;;-0.60;80.76;100477.69;5567174;32;34206;-65
2023/04/06 04:55:35;;;;;;;;;;;;;;;-0.55;78.99;100487.81;5567811;32;34919;-64
2023/04/06 04:58:39;;;;;;;;;;;;;;;-0.50;77.80;100485.78;5568442;32;34674;-65
2023/04/06 05:01:41;;;;;;;;;;;;;;;-0.35;76.60;100499.62;5568236;31;36897;-64
2023/04/06 05:04:57;;;;;;;;;;;;;;;-0.39;76.68;100495.53;5567511;32;34716;-64
2023/04/06 05:08:00;;;;;;;;;;;;;;;-0.24;75.60;100486.75;5567753;32;34408;-66
2023/04/06 05:11:04;;;;;;;;;;;;;;;-0.21;75.19;100479.56;5586843;31;34909;-66
2023/04/06 05:14:07;;;;;;;;;;;;;;;-0.09;74.23;100473.56;5583066;31;34614;-65
2023/04/06 05:17:10;;;;;;;;;;;;;;;0.04;73.25;100473.63;5553396;32;34108;-65
2023/04/06 05:20:13;;;;;;;;;;;;;;;0.15;71.27;100458.09;5567466;32;34227;-66
2023/04/06 05:23:17;;;;;;;;;;;;;;;0.17;71.55;100456.25;5554084;32;34796;-65
2023/04/06 05:26:20;;;;;;;;;;;;;;;0.30;70.72;100459.72;5567831;32;35045;-65
2023/04/06 05:29:24;;;;;;;;;;;;;;;0.29;69.81;100447.59;5567895;32;33966;-66
2023/04/06 05:32:27;;;;;;;;;;;;;;;0.22;70.12;100455.94;5567733;32;34151;-66
2023/04/06 05:35:30;;;;;;;;;;;;;;;0.32;71.83;100451.78;5554315;32;34148;-65
2023/04/06 05:38:34;;;;;;;;;;;;;;;0.50;68.11;100449.72;5567272;32;34311;-66
2023/04/06 05:41:39;;;;;;;;;;;;;;;0.63;66.45;100440.16;5567896;32;33983;-67
2023/04/06 05:44:42;;;;;;;;;;;;;;;0.60;66.24;100441.19;5567105;31;34064;-66
2023/04/06 05:47:46;;;;;;;;;;;;;;;0.64;65.97;100440.03;5579277;31;34778;-66
2023/04/06 05:50:51;;;;;;;;;;;;;;;0.87;66.15;100439.31;5567206;31;33904;-66
2023/04/06 05:53:55;;;;;;;;;;;;;;;0.87;66.26;100438.50;5575638;31;34005;-66
2023/04/06 05:56:57;;;;;;;;;;;;;;;0.76;66.19;100438.38;5567942;31;35257;-65
2023/04/06 06:00:01;;;;;;;;;;;;;;;0.75;68.88;100439.31;5566984;32;34236;-65
2023/04/06 06:03:15;;;;;;;;;;;;;;;0.87;67.01;100439.31;5566231;32;34772;-66
2023/04/06 06:06:20;;;;;;;;;;;;;;;0.97;65.73;100431.69;5567072;32;34085;-66
2023/04/06 06:09:23;;;;;;;;;;;;;;;1.05;64.77;100436.41;5567431;31;34799;-66
2023/04/06 06:12:27;;;;;;;;;;;;;;;0.94;65.01;100428.47;5565230;31;33961;-66
2023/04/06 06:15:30;;;;;;;;;;;;;;;1.00;65.60;100428.03;5566884;32;33904;-66
2023/04/06 06:18:32;;;;;;;;;;;;;;;1.04;65.70;100421.66;5577855;31;34234;-65
2023/04/06 06:21:35;;;;;;;;;;;;;;;1.36;64.50;100420.22;5586840;31;34199;-66
2023/04/06 06:24:39;;;;;;;;;;;;;;;1.37;62.72;100418.47;5587045;31;34351;-65
2023/04/06 06:27:42;;;;;;;;;;;;;;;1.65;60.90;100418.16;5578161;31;34434;-67
2023/04/06 06:30:45;;;;;;;;;;;;;;;1.41;61.77;100406.84;5566252;32;34572;-65
2023/04/06 06:33:51;;;;;;;;;;;;;;;1.73;60.96;100414.06;5567125;32;33886;-66
2023/04/06 06:36:55;;;;;;;;;;;;;;;1.92;59.63;100407.50;5567546;31;34104;-67
2023/04/06 06:39:58;;;;;;;;;;;;;;;2.29;58.51;100402.97;5569827;31;34003;-66
2023/04/06 06:43:00;;;;;;;;;;;;;;;2.41;57.35;100400.31;5553077;32;34705;-66
2023/04/06 06:46:05;;;;;;;;;;;;;;;3.01;54.97;100396.53;5567366;31;34831;-67
2023/04/06 06:49:08;;;;;;;;;;;;;;;3.12;53.89;100404.41;5571113;31;33893;-66
2023/04/06 06:52:10;;;;;;;;;;;;;;;3.11;53.11;100397.50;5566948;31;33876;-68
2023/04/06 06:55:15;;;;;;;;;;;;;;;3.46;52.42;100394.72;5570981;31;34103;-67
2023/04/06 06:58:18;;;;;;;;;;;;;;;3.44;52.08;100389.59;5552842;32;34392;-66
2023/04/06 07:01:21;;;;;;;;;;;;;;;3.40;52.35;100393.41;5562270;31;34213;-67
2023/04/06 07:04:23;;;;;;;;;;;;;;;3.71;50.69;100388.34;5572523;31;34489;-66
2023/04/06 07:07:26;;;;;;;;;;;;;;;3.62;50.71;100386.47;5585859;31;34257;-67
2023/04/06 07:10:29;;;;;;;;;;;;;;;3.69;49.85;100395.50;5585104;31;34133;-67
2023/04/06 07:13:31;;;;;;;;;;;;;;;3.48;50.49;100396.28;5586501;31;33944;-66
2023/04/06 07:16:35;;;;;;;;;;;;;;;3.81;50.00;100395.38;5573459;31;34945;-66
2023/04/06 07:19:39;;;;;;;;;;;;;;;4.13;49.19;100397.97;5560728;31;33946;-66
2023/04/06 07:22:42;;;;;;;;;;;;;;;4.12;49.38;100392.84;5571525;31;34132;-66
2023/04/06 07:25:46;;;;;;;;;;;;;;;4.03;48.67;100390.97;5567095;31;34472;-66
2023/04/06 07:28:49;;;;;;;;;;;;;;;4.74;46.98;100396.28;5575071;31;34597;-67
2023/04/06 07:31:52;;;;;;;;;;;;;;;5.04;45.96;100397.28;5574782;31;34299;-66
2023/04/06 07:34:56;;;;;;;;;;;;;;;5.08;45.70;100394.25;5552143;31;34779;-66
2023/04/06 07:37:59;;;;;;;;;;;;;;;4.91;46.23;100391.41;5585950;31;34622;-67
2023/04/06 07:41:03;;;;;;;;;;;;;;;5.55;43.92;100384.84;5587380;31;34812;-66
2023/04/06 07:44:07;;;;;;;;;;;;;;;4.81;45.04;100383.47;5574621;31;34586;-67
2023/04/06 07:47:10;;;;;;;;;;;;;;;5.29;44.88;100378.41;5583953;31;33821;-67
2023/04/06 07:50:13;;;;;;;;;;;;;;;4.85;45.66;100386.66;5584315;31;34297;-67
2023/04/06 07:53:15;;;;;;;;;;;;;;;5.24;45.44;100384.06;5588530;31;35496;-67
2023/04/06 07:56:18;;;;;;;;;;;;;;;4.78;46.07;100391.62;5588453;31;34725;-65
2023/04/06 07:59:21;;;;;;;;;;;;;;;4.81;45.90;100378.22;5588155;31;35104;-67
2023/04/06 08:02:23;;;;;;;;;;;;;;;4.95;45.62;100379.66;5574596;31;34152;-66
2023/04/06 08:05:26;;;;;;;;;;;;;;;5.21;45.73;100373.84;5588224;31;33886;-67
2023/04/06 08:08:29;;;;;;;;;;;;;;;5.57;44.62;100382.06;5579180;31;34015;-67
2023/04/06 08:11:32;;;;;;;;;;;;;;;5.44;44.56;100382.34;5568251;32;34574;-68
2023/04/06 08:14:34;;;;;;;;;;;;;;;5.10;45.08;100373.09;5568502;32;33698;-66
2023/04/06 08:17:37;;;;;;;;;;;;;;;4.98;45.19;100382.87;5567530;32;34764;-66
2023/04/06 08:20:40;;;;;;;;;;;;;;;5.39;45.26;100374.00;5568703;32;34249;-64
2023/04/06 08:23:43;;;;;;;;;;;;;;;5.83;44.17;100372.69;5568832;32;34649;-66
2023/04/06 08:26:45;;;;;;;;;;;;;;;4.80;45.67;100361.63;5568428;32;33921;-67
2023/04/06 08:29:49;;;;;;;;;;;;;;;5.53;44.61;100370.16;5567632;32;34925;-67
2023/04/06 08:32:51;;;;;;;;;;;;;;;5.48;44.95;100362.66;5568397;32;34262;-68
2023/04/06 08:35:54;;;;;;;;;;;;;;;5.30;45.14;100359.03;5567927;32;34297;-67
2023/04/06 08:38:57;;;;;;;;;;;;;;;6.07;44.04;100362.63;5572281;31;34275;-67
2023/04/06 08:42:02;;;;;;;;;;;;;;;6.82;42.34;100350.41;5573988;31;34591;-67
2023/04/06 08:45:05;;;;;;;;;;;;;;;6.93;40.90;100353.69;5576491;31;34874;-68
2023/04/06 08:48:08;;;;;;;;;;;;;;;7.41;40.71;100353.44;5568785;31;34107;-67
2023/04/06 08:51:11;;;;;;;;;;;;;;;8.61;38.31;100349.41;5570119;31;34751;-68
2023/04/06 08:54:14;;;;;;;;;;;;;;;8.20;39.08;100352.72;5584776;31;34376;-68
2023/04/06 08:57:18;;;;;;;;;;;;;;;8.11;38.76;100348.34;5578923;31;35512;-68
2023/04/06 09:00:21;;;;;;;;;;;;;;;7.76;39.47;100344.72;5579544;31;34004;-67
2023/04/06 09:03:24;;;;;;;;;;;;;;;7.42;37.55;100352.47;5575964;31;34908;-67
2023/04/06 09:06:27;;;;;;;;;;;;;;;7.49;37.71;100344.78;5571538;31;34630;-67
2023/04/06 09:09:29;;;;;;;;;;;;;;;6.54;38.98;100337.16;5574996;31;34741;-67
2023/04/06 09:12:32;;;;;;;;;;;;;;;6.98;39.00;100351.44;5567843;32;34163;-68
2023/04/06 09:15:35;;;;;;;;;;;;;;;6.42;39.74;100343.59;5568927;31;34848;-67
2023/04/06 09:18:38;;;;;;;;;;;;;;;6.20;39.94;100335.16;5556456;31;34227;-67
2023/04/06 09:21:40;;;;;;;;;;;;;;;6.16;38.92;100339.03;5571855;31;34139;-66
2023/04/06 09:24:47;;;;;;;;;;;;;;;6.40;39.18;100332.34;5587366;31;34543;-66
2023/04/06 09:27:59;;;;;;;;;;;;;;;6.25;40.20;100336.38;5569540;31;34494;-66
2023/04/06 09:31:01;;;;;;;;;;;;;;;6.77;38.69;100324.47;5567542;31;34267;-68
2023/04/06 09:34:04;;;;;;;;;;;;;;;6.79;39.97;100326.94;5579710;31;34259;-68
2023/04/06 09:37:16;;;;;;;;;;;;;;;6.92;39.05;100332.75;5567999;31;34090;-68
2023/04/06 09:40:20;;;;;;;;;;;;;;;6.82;38.91;100319.59;5563604;31;34838;-68
2023/04/06 09:43:25;;;;;;;;;;;;;;;6.80;38.88;100321.53;5578089;31;33986;-67
2023/04/06 09:46:27;;;;;;;;;;;;;;;6.78;39.61;100306.81;5573059;31;34839;-68
2023/04/06 09:49:30;;;;;;;;;;;;;;;7.59;38.28;100318.34;5585821;31;34761;-67
2023/04/06 09:52:36;;;;;;;;;;;;;;;7.58;37.86;100316.66;5568389;31;33952;-65
2023/04/06 09:55:46;;;;;;;;;;;;;;;6.91;38.99;100304.72;5567492;32;34410;-67
2023/04/06 09:58:49;;;;;;;;;;;;;;;7.08;38.79;100308.34;5572669;31;34518;-67
2023/04/06 10:01:53;;;;;;;;;;;;;;;7.07;39.25;100309.34;5578215;31;34448;-68
2023/04/06 10:05:00;;;;;;;;;;;;;;;6.81;38.75;100311.84;5582771;31;32818;-68
2023/04/06 10:08:08;;;;;;;;;;;;;;;7.31;38.48;100315.72;5567801;31;33910;-65
2023/04/06 10:11:11;;;;;;;;;;;;;;;7.48;38.36;100297.41;5567525;32;34810;-65
2023/04/06 10:14:14;;;;;;;;;;;;;;;6.78;39.75;100302.38;5578221;31;33841;-66
2023/04/06 10:17:17;;;;;;;;;;;;;;;7.08;38.67;100298.63;5567973;31;34211;-67
2023/04/06 10:20:25;;;;;;;;;;;;;;;7.90;36.85;100290.53;5586845;31;34715;-67
2023/04/06 10:23:37;;;;;;;;;;;;;;;6.64;39.05;100279.12;5586551;31;34601;-67
2023/04/06 10:26:40;;;;;;;;;;;;;;;7.02;38.12;100285.22;5586534;31;34268;-67
2023/04/06 10:29:44;;;;;;;;;;;;;;;7.30;37.67;100274.50;5586823;31;34224;-68
2023/04/06 10:32:46;;;;;;;;;;;;;;;8.07;36.68;100286.22;5586448;31;34144;-67
2023/04/06 10:35:50;;;;;;;;;;;;;;;7.67;37.15;100269.06;5586939;31;34241;-68
2023/04/06 10:38:57;;;;;;;;;;;;;;;8.19;36.86;100269.12;5586631;31;34633;-68
2023/04/06 10:42:06;;;;;;;;;;;;;;;8.29;36.86;100273.38;5586478;31;33995;-68
2023/04/06 10:45:18;;;;;;;;;;;;;;;8.61;36.42;100270.09;5586366;31;34207;-68
2023/04/06 10:48:21;;;;;;;;;;;;;;;8.48;35.43;100269.66;5586694;31;34118;-68
2023/04/06 10:51:26;;;;;;;;;;;;;;;8.91;34.91;100267.87;5572314;31;34935;-68
2023/04/06 10:54:31;;;;;;;;;;;;;;;9.32;33.95;100261.72;5567603;31;34376;-68
2023/04/06 10:57:36;;;;;;;;;;;;;;;8.96;34.39;100265.59;5565085;32;34311;-67
2023/04/06 11:00:46;;;;;;;;;;;;;;;8.67;34.21;100264.16;5565560;32;34402;-68
2023/04/06 11:03:54;;;;;;;;;;;;;;;8.99;34.11;100260.00;5565422;32;34440;-66
2023/04/06 11:06:57;;;;;;;;;;;;;;;8.40;35.14;100245.00;5565649;32;33931;-66
2023/04/06 11:10:00;;;;;;;;;;;;;;;8.11;34.76;100254.06;5573322;31;34442;-67
2023/04/06 11:13:18;;;;;;;;;;;;;;;9.22;32.47;100249.63;5584449;31;34505;-68
2023/04/06 11:16:31;;;;;;;;;;;;;;;9.49;32.88;100250.16;5586357;31;34736;-67
2023/04/06 11:19:35;;;;;;;;;;;;;;;9.55;32.88;100249.50;5581195;31;34240;-67
2023/04/06 11:22:50;;;;;;;;;;;;;;;9.54;32.18;100244.37;5567665;32;34558;-68
2023/04/06 11:25:53;;;;;;;;;;;;;;;9.23;33.83;100241.53;5568946;32;34006;-66
2023/04/06 11:28:56;;;;;;;;;;;;;;;9.41;32.80;100236.91;5568116;31;35235;-68
2023/04/06 11:32:00;;;;;;;;;;;;;;;9.38;33.28;100239.91;5567950;32;34302;-67
2023/04/06 11:35:02;;;;;;;;;;;;;;;9.39;33.07;100230.94;5568808;32;34814;-68
2023/04/06 11:38:05;;;;;;;;;;;;;;;9.10;33.80;100239.34;5568791;32;34601;-67
2023/04/06 11:41:08;;;;;;;;;;;;;;;10.07;31.78;100233.25;5568834;32;34832;-67
2023/04/06 11:44:10;;;;;;;;;;;;;;;10.43;30.91;100228.41;5568581;32;34785;-69
2023/04/06 11:47:13;;;;;;;;;;;;;;;10.96;31.21;100218.91;5568692;32;34724;-69
2023/04/06 11:50:16;;;;;;;;;;;;;;;11.42;29.58;100222.44;5568692;32;34065;-66
2023/04/06 11:53:18;;;;;;;;;;;;;;;10.60;30.49;100223.91;5567701;32;34124;-68
2023/04/06 11:56:28;;;;;;;;;;;;;;;10.43;31.13;100220.47;5568459;32;33908;-67
2023/04/06 11:59:31;;;;;;;;;;;;;;;8.73;33.42;100212.44;5568359;31;33892;-66
2023/04/06 12:02:34;;;;;;;;;;;;;;;8.44;33.74;100207.53;5586638;31;33955;-68
2023/04/06 12:05:37;;;;;;;;;;;;;;;8.71;34.38;100212.59;5588315;31;35113;-68
2023/04/06 12:08:40;;;;;;;;;;;;;;;8.82;34.00;100214.13;5588274;31;33942;-68
2023/04/06 12:11:43;;;;;;;;;;;;;;;8.53;34.18;100203.94;5588153;31;34369;-68
2023/04/06 12:14:45;;;;;;;;;;;;;;;8.05;34.64;100206.28;5588028;31;34449;-66
2023/04/06 12:17:49;;;;;;;;;;;;;;;8.13;34.66;100204.50;5570330;31;33946;-68
2023/04/06 12:20:52;;;;;;;;;;;;;;;8.51;34.52;100208.56;5568370;32;34923;-67
2023/04/06 12:23:55;;;;;;;;;;;;;;;8.49;33.53;100207.06;5568672;32;34625;-66
2023/04/06 12:26:57;;;;;;;;;;;;;;;8.52;33.57;100209.41;5568403;32;33961;-68
2023/04/06 12:30:11;;;;;;;;;;;;;;;9.33;33.15;100214.91;5570536;31;34545;-69
2023/04/06 12:33:14;;;;;;;;;;;;;;;10.58;31.00;100207.31;5563243;32;34584;-68
2023/04/06 12:36:18;;;;;;;;;;;;;;;10.25;31.77;100201.28;5554171;32;34475;-69
2023/04/06 12:39:21;;;;;;;;;;;;;;;11.18;31.32;100200.34;5554355;32;34321;-67
2023/04/06 12:42:24;;;;;;;;;;;;;;;11.14;30.70;100192.91;5554206;32;34077;-67
2023/04/06 12:45:30;;;;;;;;;;;;;;;9.79;32.19;100187.75;5572810;31;34222;-70
2023/04/06 12:48:33;;;;;;;;;;;;;;;9.31;32.86;100196.53;5584316;31;35591;-70
2023/04/06 12:51:36;;;;;;;;;;;;;;;9.18;34.21;100184.78;5581805;31;34412;-69
2023/04/06 12:54:38;;;;;;;;;;;;;;;9.69;33.34;100188.91;5568215;31;34100;-69
2023/04/06 12:57:41;;;;;;;;;;;;;;;9.95;32.92;100192.22;5578129;31;34634;-69
2023/04/06 13:00:44;;;;;;;;;;;;;;;9.53;34.26;100195.91;5567650;31;34044;-67
2023/04/06 13:03:46;;;;;;;;;;;;;;;9.69;34.53;100186.25;5568211;31;33743;-68
2023/04/06 13:06:49;;;;;;;;;;;;;;;9.48;34.12;100197.38;5567855;32;34840;-67
2023/04/06 13:09:51;;;;;;;;;;;;;;;9.13;35.03;100204.62;5568176;32;33649;-67
2023/04/06 13:12:54;;;;;;;;;;;;;;;8.90;35.87;100190.34;5581519;31;34723;-67
2023/04/06 13:16:08;;;;;;;;;;;;;;;9.19;35.69;100189.91;5581321;31;34718;-68
2023/04/06 13:19:11;;;;;;;;;;;;;;;8.99;36.08;100185.91;5569174;31;34588;-66
2023/04/06 13:22:13;;;;;;;;;;;;;;;8.90;35.71;100184.22;5571922;31;34526;-68
2023/04/06 13:25:16;;;;;;;;;;;;;;;8.36;36.79;100177.59;5575908;31;34336;-68
2023/04/06 13:28:19;;;;;;;;;;;;;;;8.30;36.97;100184.34;5569801;31;34115;-67
2023/04/06 13:31:22;;;;;;;;;;;;;;;8.44;38.04;100190.84;5566743;31;34449;-67
2023/04/06 13:34:24;;;;;;;;;;;;;;;8.37;37.66;100189.81;5566550;32;34127;-68
2023/04/06 13:37:31;;;;;;;;;;;;;;;8.26;38.88;100194.38;5567035;32;35029;-67
2023/04/06 13:40:38;;;;;;;;;;;;;;;8.08;39.65;100180.41;5567705;31;34710;-69
2023/04/06 13:43:40;;;;;;;;;;;;;;;8.76;38.45;100185.69;5554655;31;34261;-65
2023/04/06 13:46:43;;;;;;;;;;;;;;;8.34;40.19;100190.13;5573660;31;34181;-67
2023/04/06 13:49:47;;;;;;;;;;;;;;;8.62;39.50;100200.31;5571553;31;35181;-68
2023/04/06 13:52:49;;;;;;;;;;;;;;;8.30;39.97;100181.69;5585682;31;34049;-68
2023/04/06 13:55:55;;;;;;;;;;;;;;;8.56;38.88;100173.72;5559126;32;34153;-67
2023/04/06 13:58:58;;;;;;;;;;;;;;;8.98;37.34;100169.19;5569819;32;34299;-68
2023/04/06 14:02:02;;;;;;;;;;;;;;;8.78;38.40;100162.53;5567328;32;34176;-69
2023/04/06 14:05:05;;;;;;;;;;;;;;;9.31;38.16;100162.13;5567191;32;34508;-68
2023/04/06 14:08:07;;;;;;;;;;;;;;;8.78;37.41;100157.25;5566876;32;35010;-68
2023/04/06 14:11:11;;;;;;;;;;;;;;;8.48;37.69;100165.72;5567267;32;34804;-67
2023/04/06 14:14:14;;;;;;;;;;;;;;;8.46;37.74;100167.72;5567715;32;33986;-68
2023/04/06 14:17:17;;;;;;;;;;;;;;;8.49;38.02;100162.94;5567213;31;34950;-68
2023/04/06 14:20:20;;;;;;;;;;;;;;;8.44;37.83;100157.28;5553679;32;34105;-68
2023/04/06 14:23:25;;;;;;;;;;;;;;;8.52;37.42;100159.16;5567195;32;35078;-67
2023/04/06 14:26:28;;;;;;;;;;;;;;;8.45;37.94;100168.69;5567253;32;34703;-68
2023/04/06 14:29:31;;;;;;;;;;;;;;;8.52;38.72;100172.37;5573175;31;34153;-68
2023/04/06 14:32:33;;;;;;;;;;;;;;;8.08;39.89;100166.37;5585076;31;33543;-68
2023/04/06 14:35:39;;;;;;;;;;;;;;;8.20;39.29;100163.28;5586221;31;34252;-66
2023/04/06 14:38:43;;;;;;;;;;;;;;;8.19;39.27;100164.25;5586014;31;34372;-68
2023/04/06 14:41:47;;;;;;;;;;;;;;;8.13;39.09;100162.25;5586430;31;35223;-68
2023/04/06 14:44:53;;;;;;;;;;;;;;;8.04;39.79;100167.62;5572015;31;35189;-68
2023/04/06 14:47:56;;;;;;;;;;;;;;;7.77;42.18;100177.38;5568045;31;33414;-68
2023/04/06 14:50:58;;;;;;;;;;;;;;;7.79;43.10;100179.87;5561708;31;33860;-67
2023/04/06 14:54:04;;;;;;;;;;;;;;;7.62;43.79;100183.37;5566913;31;34090;-67
2023/04/06 14:57:07;;;;;;;;;;;;;;;7.73;43.79;100183.97;5567212;32;34791;-68
2023/04/06 15:00:10;;;;;;;;;;;;;;;7.72;43.76;100190.22;5566973;32;34477;-66
2023/04/06 15:03:13;;;;;;;;;;;;;;;7.55;44.87;100191.06;5566804;32;34297;-68
2023/04/06 15:06:19;;;;;;;;;;;;;;;7.37;46.35;100185.81;5560573;32;34452;-68
2023/04/06 15:09:21;;;;;;;;;;;;;;;6.85;50.52;100200.66;5566756;32;34521;-67
2023/04/06 15:12:24;;;;;;;;;;;;;;;6.69;52.39;100208.38;5578417;31;34214;-68
2023/04/06 15:15:27;;;;;;;;;;;;;;;6.59;53.48;100204.94;5586138;31;34769;-68
2023/04/06 15:18:30;;;;;;;;;;;;;;;6.81;53.75;100198.47;5585865;31;34818;-68
2023/04/06 15:21:32;;;;;;;;;;;;;;;6.84;53.90;100200.78;5572014;31;33900;-68
2023/04/06 15:24:35;;;;;;;;;;;;;;;6.49;56.84;100206.78;5586379;31;34006;-67
2023/04/06 15:27:37;;;;;;;;;;;;;;;6.21;57.47;100208.56;5586127;31;34063;-68
2023/04/06 15:30:40;;;;;;;;;;;;;;;6.35;58.78;100209.91;5578264;31;34219;-68
2023/04/06 15:33:42;;;;;;;;;;;;;;;6.22;59.26;100215.50;5585900;31;33857;-68
2023/04/06 15:36:46;;;;;;;;;;;;;;;6.20;60.85;100209.53;5579497;31;34041;-68
2023/04/06 15:39:49;;;;;;;;;;;;;;;6.10;60.78;100212.22;5552598;32;34311;-68
2023/04/06 15:42:52;;;;;;;;;;;;;;;5.79;62.04;100208.12;5570162;31;33840;-68
2023/04/06 15:45:55;;;;;;;;;;;;;;;5.78;62.67;100208.25;5580357;31;33899;-67
2023/04/06 15:48:57;;;;;;;;;;;;;;;5.65;63.16;100205.91;5568143;31;34207;-67
2023/04/06 15:52:00;;;;;;;;;;;;;;;5.89;62.97;100210.75;5571879;31;34250;-68